<?xml version='1.0' encoding='UTF-8'?>
<gpx xmlns="http://www.topografix.com/GPX/1/1" creator="www.balnam.be" version="1.1" xmlns:xsi="http://www.w3.org/2001/XMLSchema-instance" xsi:schemaLocation="http://www.topografix.com/GPX/1/1 http://www.topografix.com/GPX/1/1/gpx.xsd">
<trk>
<name>nvsbh4</name>
<cmt>r</cmt>
<desc>Bohan Chemin n°4 Rue de France / Rue d'Hérissart / w / ?</desc>
<link href="https://chemins.be/bohan/chemin/4"/><trkseg>
<trkpt lat="49.864671" lon="4.883479"><time>2026-05-02T23:51:03Z</time></trkpt>
<trkpt lat="49.864607" lon="4.881531"><time>2026-05-03T00:01:03Z</time></trkpt>
<trkpt lat="49.865218" lon="4.881733"><time>2026-05-03T00:11:03Z</time></trkpt>
</trkseg></trk>
<trk>
<name>nvsbh4</name>
<cmt>s</cmt>
<desc>Bohan Chemin n°4 Rue de France / Rue d'Hérissart / w / ?</desc>
<link href="https://chemins.be/bohan/chemin/4"/><trkseg>
<trkpt lat="49.865218" lon="4.881733"><time>2026-05-03T00:11:03Z</time></trkpt>
<trkpt lat="49.865434" lon="4.881665"><time>2026-05-03T00:21:03Z</time></trkpt>
<trkpt lat="49.865677" lon="4.881487"><time>2026-05-03T00:31:03Z</time></trkpt>
</trkseg></trk>
<trk>
<name>nvsbh4</name>
<cmt>r</cmt>
<desc>Bohan Chemin n°4 Rue de France / Rue d'Hérissart / w / ?</desc>
<link href="https://chemins.be/bohan/chemin/4"/><trkseg>
<trkpt lat="49.865677" lon="4.881487"><time>2026-05-03T00:31:03Z</time></trkpt>
<trkpt lat="49.866497" lon="4.881162"><time>2026-05-03T00:41:03Z</time></trkpt>
<trkpt lat="49.867641" lon="4.880771"><time>2026-05-03T00:51:03Z</time></trkpt>
</trkseg></trk>
<trk>
<name>nvsbh4</name>
<cmt>v</cmt>
<desc>Bohan Chemin n°4 Rue de France / Rue d'Hérissart / w / ?</desc>
<link href="https://chemins.be/bohan/chemin/4"/><trkseg>
<trkpt lat="49.867641" lon="4.880771"><time>2026-05-03T00:51:03Z</time></trkpt>
<trkpt lat="49.868485" lon="4.881030"><time>2026-05-03T01:01:03Z</time></trkpt>
<trkpt lat="49.872291" lon="4.880278"><time>2026-05-03T01:11:03Z</time></trkpt>
</trkseg></trk>
<trk>
<name>nvsbh4</name>
<cmt>r</cmt>
<desc>Bohan Chemin n°4 Rue de France / Rue d'Hérissart / w / ?</desc>
<link href="https://chemins.be/bohan/chemin/4"/><trkseg>
<trkpt lat="49.872291" lon="4.880278"><time>2026-05-03T01:11:03Z</time></trkpt>
<trkpt lat="49.874516" lon="4.879453"><time>2026-05-03T01:21:03Z</time></trkpt>
</trkseg></trk>
<trk>
<name>nvsbh4</name>
<cmt>v</cmt>
<desc>Bohan Chemin n°4 Rue de France / Rue d'Hérissart / w / ?</desc>
<link href="https://chemins.be/bohan/chemin/4"/><trkseg>
<trkpt lat="49.874516" lon="4.879453"><time>2026-05-03T01:21:03Z</time></trkpt>
<trkpt lat="49.875729" lon="4.879494"><time>2026-05-03T01:31:03Z</time></trkpt>
<trkpt lat="49.876422" lon="4.879348"><time>2026-05-03T01:41:03Z</time></trkpt>
<trkpt lat="49.877104" lon="4.879578"><time>2026-05-03T01:51:03Z</time></trkpt>
<trkpt lat="49.878156" lon="4.879617"><time>2026-05-03T02:01:03Z</time></trkpt>
<trkpt lat="49.879419" lon="4.878629"><time>2026-05-03T02:11:03Z</time></trkpt>
<trkpt lat="49.879940" lon="4.878815"><time>2026-05-03T02:21:03Z</time></trkpt>
<trkpt lat="49.881364" lon="4.879985"><time>2026-05-03T02:31:03Z</time></trkpt>
<trkpt lat="49.882054" lon="4.880605"><time>2026-05-03T02:41:03Z</time></trkpt>
<trkpt lat="49.885545" lon="4.882061"><time>2026-05-03T02:51:03Z</time></trkpt>
<trkpt lat="49.886721" lon="4.882450"><time>2026-05-03T03:01:03Z</time></trkpt>
<trkpt lat="49.888384" lon="4.882523"><time>2026-05-03T03:11:03Z</time></trkpt>
<trkpt lat="49.889744" lon="4.883860"><time>2026-05-03T03:21:03Z</time></trkpt>
</trkseg>
</trk>
</gpx>